Time;durP1;ratioP1;P1;durP2;ratioP2;P2;SDS_P1;SDS_P2;PMS_P1;PMS_P2;Temp;Humidity;BMP_temperature;BMP_pressure;BME280_temperature;BME280_humidity;BME280_pressure;Samples;Min_cycle;Max_cycle;Signal;HPM_P1;HPM_P2
2022/05/27 00:00:20;;;;;;;16.67;8.15;;;19.00;99.90;;;;;;5048543;28;20024;-74
2022/05/27 00:02:49;;;;;;;14.52;7.78;;;19.10;99.90;;;;;;5050074;28;20391;-74
2022/05/27 00:05:16;;;;;;;12.80;8.75;;;19.10;99.90;;;;;;5050187;28;20491;-74
2022/05/27 00:07:41;;;;;;;15.30;8.55;;;19.20;99.90;;;;;;5050671;28;20025;-74
2022/05/27 00:10:09;;;;;;;16.15;8.80;;;19.20;99.90;;;;;;5049578;28;20483;-74
2022/05/27 00:12:35;;;;;;;13.57;8.57;;;19.20;99.90;;;;;;5050645;28;20029;-74
2022/05/27 00:15:01;;;;;;;13.15;8.77;;;19.20;99.90;;;;;;5051224;28;20059;-74
2022/05/27 00:17:27;;;;;;;13.68;8.15;;;19.20;99.90;;;;;;5049627;28;20052;-74
2022/05/27 00:19:53;;;;;;;11.80;7.75;;;19.20;99.90;;;;;;5049839;28;20491;-74
2022/05/27 00:22:19;;;;;;;14.75;8.23;;;19.20;99.90;;;;;;5046806;28;20083;-74
2022/05/27 00:24:44;;;;;;;17.17;9.02;;;19.20;99.90;;;;;;5050341;28;20494;-74
2022/05/27 00:27:10;;;;;;;16.13;7.82;;;19.30;99.90;;;;;;5041083;28;20076;-74
2022/05/27 00:29:37;;;;;;;16.33;8.63;;;19.30;99.90;;;;;;5050551;28;20045;-74
2022/05/27 00:32:05;;;;;;;16.65;8.38;;;19.20;99.90;;;;;;5042254;28;20079;-74
2022/05/27 00:34:31;;;;;;;17.60;8.38;;;19.20;99.90;;;;;;5052608;28;20040;-74
2022/05/27 00:36:57;;;;;;;16.60;8.90;;;19.20;99.90;;;;;;5043735;28;20029;-74
2022/05/27 00:39:23;;;;;;;15.57;9.77;;;19.20;99.90;;;;;;5052670;28;20029;-74
2022/05/27 00:41:49;;;;;;;14.43;9.15;;;19.30;99.90;;;;;;5048310;28;20120;-74
2022/05/27 00:44:14;;;;;;;23.58;8.60;;;19.30;99.90;;;;;;5047314;28;20032;-74
2022/05/27 00:46:43;;;;;;;17.05;9.20;;;19.20;99.90;;;;;;5049524;28;20037;-74
2022/05/27 00:49:20;;;;;;;19.30;8.32;;;19.10;99.90;;;;;;5045727;28;20121;-74
2022/05/27 00:51:58;;;;;;;15.68;9.05;;;19.10;99.90;;;;;;5047856;28;20036;-74
2022/05/27 00:54:25;;;;;;;21.45;10.07;;;19.00;99.90;;;;;;5047569;28;20036;-74
2022/05/27 00:56:57;;;;;;;18.55;8.70;;;19.00;99.90;;;;;;5046029;28;20487;-74
2022/05/27 00:59:38;;;;;;;13.43;9.40;;;19.00;99.90;;;;;;5048541;28;20029;-74
2022/05/27 01:02:04;;;;;;;12.07;8.02;;;19.00;99.90;;;;;;5040992;28;20036;-74
2022/05/27 01:04:31;;;;;;;20.80;9.48;;;18.90;99.90;;;;;;5048583;28;20053;-74
2022/05/27 01:06:56;;;;;;;14.13;8.75;;;18.90;99.90;;;;;;5050212;28;20025;-74
2022/05/27 01:09:23;;;;;;;14.15;9.57;;;18.80;99.90;;;;;;5047225;28;20036;-73
2022/05/27 01:11:56;;;;;;;15.50;8.90;;;18.70;99.90;;;;;;5051933;28;20062;-74
2022/05/27 01:14:50;;;;;;;17.48;9.45;;;18.70;99.90;;;;;;5043985;28;20028;-74
2022/05/27 01:17:29;;;;;;;19.80;10.18;;;18.60;99.90;;;;;;5037174;28;20450;-74
2022/05/27 01:20:24;;;;;;;16.70;8.82;;;18.60;99.90;;;;;;5051985;28;20035;-74
2022/05/27 01:23:17;;;;;;;19.75;9.57;;;18.50;99.90;;;;;;5029275;28;20053;-74
2022/05/27 01:26:19;;;;;;;13.35;9.43;;;18.30;99.90;;;;;;5045367;28;20029;-74
2022/05/27 01:29:20;;;;;;;15.80;10.30;;;18.40;99.90;;;;;;5039967;28;20387;-73
2022/05/27 01:31:52;;;;;;;16.25;9.65;;;18.40;99.90;;;;;;5039753;28;21511;-74
2022/05/27 01:34:33;;;;;;;14.85;10.13;;;18.50;99.90;;;;;;5040521;28;20026;-74
2022/05/27 01:37:26;;;;;;;14.00;9.48;;;18.40;99.90;;;;;;5044173;28;20021;-74
2022/05/27 01:40:25;;;;;;;16.58;9.65;;;18.30;99.90;;;;;;5054518;28;20039;-73
2022/05/27 01:43:03;;;;;;;12.85;10.15;;;18.30;99.90;;;;;;5038823;28;20032;-74
2022/05/27 01:45:40;;;;;;;14.38;9.00;;;18.20;99.90;;;;;;5051419;28;20399;-74
2022/05/27 01:48:20;;;;;;;23.52;9.70;;;18.20;99.90;;;;;;5042581;28;20158;-74
2022/05/27 01:51:01;;;;;;;16.33;9.05;;;18.30;99.90;;;;;;5052018;28;20036;-74
2022/05/27 01:53:57;;;;;;;19.63;9.75;;;18.40;99.90;;;;;;5039869;28;20020;-73
2022/05/27 01:56:39;;;;;;;19.58;9.45;;;18.40;99.90;;;;;;5049193;28;20036;-74
2022/05/27 01:59:20;;;;;;;13.88;9.50;;;18.60;99.90;;;;;;5051937;28;20074;-74
2022/05/27 02:01:56;;;;;;;15.10;9.70;;;18.50;99.90;;;;;;5047061;28;20034;-73
2022/05/27 02:04:40;;;;;;;15.45;9.63;;;18.30;99.90;;;;;;5047210;28;20040;-74
2022/05/27 02:07:16;;;;;;;14.68;9.15;;;18.30;99.90;;;;;;5044423;28;20113;-74
2022/05/27 02:09:46;;;;;;;17.35;9.48;;;18.20;99.90;;;;;;5039963;28;20037;-74
2022/05/27 02:12:22;;;;;;;16.30;9.55;;;18.20;99.90;;;;;;5049442;28;20364;-73
2022/05/27 02:14:52;;;;;;;14.13;9.10;;;18.30;99.90;;;;;;5051130;28;20037;-73
2022/05/27 02:17:23;;;;;;;17.10;9.77;;;18.20;99.90;;;;;;5049132;28;20033;-73
2022/05/27 02:19:57;;;;;;;15.20;9.35;;;18.10;99.90;;;;;;5048719;28;20482;-74
2022/05/27 02:22:30;;;;;;;16.35;9.38;;;18.10;99.90;;;;;;5042371;28;20038;-74
2022/05/27 02:25:12;;;;;;;18.40;10.87;;;18.20;99.90;;;;;;5049989;28;20090;-74
2022/05/27 02:27:53;;;;;;;14.00;9.80;;;18.40;99.90;;;;;;5047488;28;20318;-74
2022/05/27 02:30:23;;;;;;;14.10;8.88;;;18.60;99.90;;;;;;5053786;28;20029;-74
2022/05/27 02:35:43;;;;;;;15.27;10.18;;;18.50;99.90;;;;;;5055252;28;20103;-74
2022/05/27 02:38:10;;;;;;;12.95;9.05;;;18.50;99.90;;;;;;5052852;28;20490;-73
2022/05/27 02:41:16;;;;;;;15.43;10.30;;;18.60;99.90;;;;;;5053421;28;20040;-73
2022/05/27 02:44:10;;;;;;;16.10;9.63;;;18.60;99.90;;;;;;4962477;28;20034;-74
2022/05/27 02:46:39;;;;;;;18.40;9.38;;;18.60;99.90;;;;;;5049361;28;20051;-73
2022/05/27 02:49:14;;;;;;;11.48;8.52;;;18.70;99.90;;;;;;5046264;28;20021;-73
2022/05/27 02:52:11;;;;;;;15.48;9.73;;;18.80;99.90;;;;;;5050874;28;20091;-74
2022/05/27 02:54:48;;;;;;;16.48;10.35;;;18.80;99.90;;;;;;5052094;28;20479;-74
2022/05/27 02:57:27;;;;;;;15.00;8.82;;;18.90;99.90;;;;;;5047163;28;20491;-74
2022/05/27 02:59:54;;;;;;;11.43;9.15;;;18.80;99.90;;;;;;5046680;28;20032;-74
2022/05/27 03:02:20;;;;;;;18.58;9.73;;;18.70;99.90;;;;;;5046965;28;20021;-72
2022/05/27 03:04:55;;;;;;;13.18;9.77;;;18.70;99.90;;;;;;5044701;28;20045;-72
2022/05/27 03:07:43;;;;;;;19.15;10.00;;;18.70;99.90;;;;;;5046814;28;20044;-72
2022/05/27 03:10:27;;;;;;;16.73;8.63;;;18.70;99.90;;;;;;5048157;28;20044;-72
2022/05/27 03:12:53;;;;;;;;;;;18.80;99.90;;;;;;5038459;28;20609;-72
2022/05/27 03:15:29;;;;;;;18.17;9.10;;;18.80;99.90;;;;;;5042338;28;19908;-72
2022/05/27 03:18:19;;;;;;;16.27;9.05;;;18.80;99.90;;;;;;5025517;28;20462;-72
2022/05/27 03:20:56;;;;;;;13.52;9.48;;;18.80;99.90;;;;;;5040281;28;20563;-72
2022/05/27 03:23:48;;;;;;;11.90;8.73;;;18.60;99.90;;;;;;5036517;28;20028;-72
2022/05/27 03:26:28;;;;;;;14.32;9.05;;;18.40;99.90;;;;;;5046577;28;20079;-72
2022/05/27 03:29:04;;;;;;;14.20;9.00;;;18.30;99.90;;;;;;5042270;28;20037;-72
2022/05/27 03:31:39;;;;;;;14.68;8.90;;;18.20;99.90;;;;;;5043486;28;20435;-72
2022/05/27 03:34:16;;;;;;;14.60;10.10;;;18.30;99.90;;;;;;5047369;28;20100;-72
2022/05/27 03:37:04;;;;;;;14.75;9.55;;;18.30;99.90;;;;;;5043135;28;20034;-72
2022/05/27 03:39:34;;;;;;;16.38;9.50;;;18.20;99.90;;;;;;5036715;28;20048;-72
2022/05/27 03:42:03;;;;;;;15.55;8.93;;;18.30;99.90;;;;;;5044565;28;20044;-72
2022/05/27 03:44:30;;;;;;;14.95;8.50;;;18.30;99.90;;;;;;5049022;28;20060;-72
2022/05/27 03:46:58;;;;;;;13.27;9.13;;;18.20;99.90;;;;;;5042031;28;20072;-72
2022/05/27 03:49:24;;;;;;;19.67;9.75;;;18.20;99.90;;;;;;5049060;28;20029;-72
2022/05/27 03:51:53;;;;;;;12.75;8.35;;;18.10;99.90;;;;;;5042963;28;20044;-72
2022/05/27 03:54:20;;;;;;;12.75;8.75;;;18.10;99.90;;;;;;5043704;28;20028;-72
2022/05/27 03:56:47;;;;;;;15.63;9.15;;;18.00;99.90;;;;;;5045504;28;20494;-72
2022/05/27 03:59:15;;;;;;;12.80;8.93;;;18.00;99.90;;;;;;5042858;28;20071;-72
2022/05/27 04:01:43;;;;;;;16.40;9.80;;;18.00;99.90;;;;;;5034344;28;20041;-72
2022/05/27 04:04:11;;;;;;;16.67;8.77;;;18.10;99.90;;;;;;5046369;28;20045;-72
2022/05/27 04:06:37;;;;;;;17.80;9.80;;;18.20;99.90;;;;;;5024292;28;20087;-72
2022/05/27 04:09:04;;;;;;;41.45;11.70;;;18.30;99.90;;;;;;5034170;28;20129;-72
2022/05/27 04:11:30;;;;;;;14.00;9.20;;;18.30;99.90;;;;;;5049070;28;20036;-72
2022/05/27 04:13:57;;;;;;;20.85;9.73;;;18.40;99.90;;;;;;5049183;28;20532;-72
2022/05/27 04:16:24;;;;;;;16.40;9.02;;;18.20;99.90;;;;;;5045389;28;20032;-72
2022/05/27 04:18:49;;;;;;;16.83;9.48;;;18.10;99.90;;;;;;5039372;28;20033;-72
2022/05/27 04:21:15;;;;;;;14.20;9.45;;;18.20;99.90;;;;;;5043993;28;20507;-72
2022/05/27 04:23:41;;;;;;;15.18;9.25;;;18.40;99.90;;;;;;5047427;28;20141;-72
2022/05/27 04:26:07;;;;;;;11.68;8.27;;;18.40;99.90;;;;;;5042318;28;20041;-72
2022/05/27 04:28:33;;;;;;;16.77;9.68;;;18.40;99.90;;;;;;5035196;28;20252;-72
2022/05/27 04:31:00;;;;;;;15.43;9.23;;;18.50;99.90;;;;;;5044815;28;20052;-72
2022/05/27 04:33:27;;;;;;;13.85;8.32;;;18.60;99.90;;;;;;5058619;28;20029;-72
2022/05/27 04:35:56;;;;;;;16.77;8.30;;;18.80;99.90;;;;;;5038646;28;20121;-72
2022/05/27 04:38:22;;;;;;;15.50;8.65;;;18.70;99.90;;;;;;5039693;28;20029;-72
2022/05/27 04:40:48;;;;;;;15.30;8.85;;;18.80;99.90;;;;;;5041563;28;20026;-72
2022/05/27 04:43:15;;;;;;;9.98;8.00;;;18.80;99.90;;;;;;5042889;28;20067;-72
2022/05/27 04:45:41;;;;;;;15.77;9.40;;;18.90;99.90;;;;;;5056710;28;20064;-72
2022/05/27 04:48:07;;;;;;;15.48;9.38;;;18.90;99.90;;;;;;5045821;28;20061;-72
2022/05/27 04:50:33;;;;;;;17.23;7.95;;;18.80;99.90;;;;;;5045165;28;20037;-72
2022/05/27 04:52:59;;;;;;;10.93;7.60;;;18.80;99.90;;;;;;5027641;28;20032;-72
2022/05/27 04:55:25;;;;;;;13.05;7.07;;;18.90;99.90;;;;;;5034867;28;20057;-72
2022/05/27 04:57:54;;;;;;;15.32;8.25;;;19.10;99.90;;;;;;5047193;28;20567;-72
2022/05/27 05:00:32;;;;;;;9.98;7.43;;;19.10;99.90;;;;;;5044212;28;20044;-72
2022/05/27 05:02:58;;;;;;;19.13;8.60;;;19.20;99.90;;;;;;5039821;28;20031;-72
2022/05/27 05:05:27;;;;;;;13.52;8.38;;;19.40;99.90;;;;;;5038347;28;20042;-72
2022/05/27 05:07:58;;;;;;;14.40;8.13;;;19.40;99.90;;;;;;5026678;28;20403;-73
2022/05/27 05:10:24;;;;;;;14.23;7.80;;;19.40;99.90;;;;;;5037505;28;20047;-72
2022/05/27 05:12:51;;;;;;;11.05;7.10;;;19.40;99.90;;;;;;5042026;28;20037;-72
2022/05/27 05:15:18;;;;;;;12.75;7.75;;;19.40;99.90;;;;;;5039810;28;20025;-72
2022/05/27 05:17:44;;;;;;;10.93;7.20;;;19.40;99.90;;;;;;5042097;28;20025;-72
2022/05/27 05:20:13;;;;;;;17.42;8.13;;;19.40;99.90;;;;;;5032737;28;20677;-72
2022/05/27 05:22:38;;;;;;;9.32;7.18;;;19.50;99.90;;;;;;5041405;28;20064;-72
2022/05/27 05:25:05;;;;;;;14.25;8.60;;;19.60;99.90;;;;;;5038109;28;20087;-71
2022/05/27 05:27:31;;;;;;;12.30;7.78;;;19.60;99.90;;;;;;5053604;28;20083;-73
2022/05/27 05:29:58;;;;;;;14.40;8.15;;;19.50;99.90;;;;;;5037178;28;20427;-73
2022/05/27 05:32:24;;;;;;;15.40;7.60;;;19.40;99.90;;;;;;5027107;28;20591;-72
2022/05/27 05:34:49;;;;;;;13.95;8.18;;;19.40;99.90;;;;;;5044558;28;20052;-73
2022/05/27 05:37:15;;;;;;;11.48;7.68;;;19.40;99.90;;;;;;5044661;28;20037;-73
2022/05/27 05:39:41;;;;;;;10.07;7.28;;;19.40;99.90;;;;;;5043761;28;20061;-73
2022/05/27 05:42:08;;;;;;;11.88;8.10;;;19.50;99.90;;;;;;5043738;28;20029;-72
2022/05/27 05:44:34;;;;;;;11.27;7.80;;;19.50;99.90;;;;;;5051810;28;20032;-73
2022/05/27 05:47:02;;;;;;;10.95;8.25;;;19.60;99.90;;;;;;5063463;28;20210;-72
2022/05/27 05:49:28;;;;;;;16.15;8.68;;;19.60;99.90;;;;;;5043907;28;20041;-73
2022/05/27 05:51:57;;;;;;;14.13;7.05;;;19.50;99.90;;;;;;5039439;28;20110;-72
2022/05/27 05:54:24;;;;;;;9.85;6.60;;;19.50;99.90;;;;;;5037039;28;20041;-72
2022/05/27 05:56:50;;;;;;;13.35;6.93;;;19.50;99.90;;;;;;5031503;28;20425;-72
2022/05/27 05:59:16;;;;;;;12.98;6.95;;;19.60;99.90;;;;;;5062830;28;20033;-73
2022/05/27 06:01:42;;;;;;;9.98;6.45;;;19.70;99.90;;;;;;5063634;28;20029;-72
2022/05/27 06:04:09;;;;;;;16.33;7.07;;;19.90;99.90;;;;;;5049905;28;20037;-73
2022/05/27 06:06:35;;;;;;;12.55;7.05;;;19.90;99.90;;;;;;5041161;28;20025;-73
2022/05/27 06:09:00;;;;;;;14.52;6.90;;;19.90;99.90;;;;;;5042722;28;20045;-72
2022/05/27 06:11:26;;;;;;;9.93;6.70;;;19.90;99.90;;;;;;5042908;28;20033;-72
2022/05/27 06:13:51;;;;;;;13.55;6.50;;;19.90;99.90;;;;;;5043378;28;20091;-73
2022/05/27 06:16:17;;;;;;;13.15;6.97;;;20.00;99.90;;;;;;5041077;28;20087;-73
2022/05/27 06:18:43;;;;;;;12.55;6.43;;;20.00;99.90;;;;;;5042993;28;20078;-72
2022/05/27 06:21:09;;;;;;;10.27;6.88;;;20.00;99.90;;;;;;5037556;28;20044;-72
2022/05/27 06:23:35;;;;;;;11.85;6.63;;;19.90;99.90;;;;;;5033698;28;20560;-71
2022/05/27 06:26:05;;;;;;;11.52;6.13;;;20.00;99.90;;;;;;5041235;28;20029;-72
2022/05/27 06:36:45;;;;;;;12.10;7.57;;;20.10;99.90;;;;;;5041692;28;20419;-72
2022/05/27 06:39:11;;;;;;;13.60;6.95;;;20.10;99.90;;;;;;5042614;28;20044;-71
2022/05/27 06:41:37;;;;;;;10.90;6.63;;;20.20;99.90;;;;;;5043916;28;20032;-72
2022/05/27 06:44:04;;;;;;;11.57;8.10;;;20.30;99.90;;;;;;5035972;28;20088;-71
2022/05/27 06:46:31;;;;;;;13.00;6.90;;;20.30;99.90;;;;;;5042990;28;20036;-71
2022/05/27 06:48:56;;;;;;;12.00;6.95;;;20.40;99.90;;;;;;5035606;28;20034;-71
2022/05/27 06:51:22;;;;;;;10.75;6.90;;;20.50;99.90;;;;;;5045650;28;20082;-71
2022/05/27 06:53:49;;;;;;;10.70;7.45;;;20.50;99.90;;;;;;5042563;28;20044;-71
2022/05/27 06:56:15;;;;;;;15.30;7.18;;;20.70;99.90;;;;;;5043360;28;20179;-71
2022/05/27 06:58:42;;;;;;;9.38;6.35;;;20.80;99.90;;;;;;5037141;28;20037;-71
2022/05/27 07:01:11;;;;;;;14.40;6.78;;;21.00;99.90;;;;;;5041265;28;20032;-72
2022/05/27 07:03:38;;;;;;;18.80;7.25;;;21.20;99.90;;;;;;5042686;28;20033;-72
2022/05/27 07:06:05;;;;;;;16.73;7.15;;;21.40;99.90;;;;;;5042492;28;20052;-72
2022/05/27 07:08:31;;;;;;;15.35;7.28;;;21.60;99.90;;;;;;5045042;28;20039;-71
2022/05/27 07:10:57;;;;;;;16.63;7.20;;;21.80;99.90;;;;;;5041743;28;20044;-72
2022/05/27 07:13:23;;;;;;;14.85;7.55;;;21.90;99.90;;;;;;5047451;28;20115;-71
2022/05/27 07:15:49;;;;;;;8.98;6.53;;;22.10;99.90;;;;;;5043486;28;20031;-72
2022/05/27 07:18:14;;;;;;;10.75;6.55;;;22.20;99.90;;;;;;5046875;28;20064;-72
2022/05/27 07:20:44;;;;;;;9.77;6.18;;;22.50;99.90;;;;;;5045795;28;20111;-71
2022/05/27 07:23:10;;;;;;;11.20;6.45;;;22.70;99.90;;;;;;5046816;28;20394;-71
2022/05/27 07:25:37;;;;;;;10.88;6.63;;;23.30;99.90;;;;;;5047019;28;20697;-72
2022/05/27 07:28:05;;;;;;;14.20;5.60;;;24.50;99.90;;;;;;5046148;28;20033;-71
2022/05/27 07:30:31;;;;;;;11.93;6.80;;;25.50;98.00;;;;;;5044352;28;20041;-71
2022/05/27 07:32:56;;;;;;;11.27;6.60;;;27.00;95.80;;;;;;5058217;28;20059;-72
2022/05/27 07:35:22;;;;;;;11.57;6.43;;;28.00;94.00;;;;;;5044795;28;20040;-71
2022/05/27 07:37:48;;;;;;;10.40;6.93;;;28.60;93.40;;;;;;5046608;28;20055;-72
2022/05/27 07:40:14;;;;;;;8.82;6.25;;;28.80;92.70;;;;;;5046299;28;20112;-71
2022/05/27 07:42:41;;;;;;;10.48;5.38;;;28.80;93.00;;;;;;5045127;28;20418;-72
2022/05/27 07:45:08;;;;;;;14.75;5.85;;;28.90;92.80;;;;;;5046455;28;20055;-72
2022/05/27 07:47:34;;;;;;;13.13;7.05;;;28.60;93.00;;;;;;5046234;28;20036;-72
2022/05/27 07:49:59;;;;;;;11.60;7.07;;;27.90;93.10;;;;;;5042932;28;20037;-72
2022/05/27 07:52:25;;;;;;;9.05;6.60;;;28.00;93.60;;;;;;5046719;28;20029;-72
2022/05/27 07:54:51;;;;;;;11.50;5.90;;;27.80;92.90;;;;;;5037003;28;20037;-72
2022/05/27 07:57:23;;;;;;;10.45;5.90;;;27.20;93.90;;;;;;5046571;28;20029;-72
2022/05/27 08:00:06;;;;;;;15.85;6.70;;;27.00;93.40;;;;;;5045832;28;20029;-72
2022/05/27 08:02:32;;;;;;;11.18;5.35;;;26.10;94.40;;;;;;5041995;28;20041;-72
2022/05/27 08:04:58;;;;;;;11.40;5.45;;;25.60;94.50;;;;;;5044491;28;20102;-72
2022/05/27 08:07:27;;;;;;;11.88;6.25;;;25.50;94.70;;;;;;5039361;28;20044;-72
2022/05/27 08:09:53;;;;;;;10.02;5.45;;;25.40;95.40;;;;;;5045876;28;20044;-72
2022/05/27 08:12:19;;;;;;;12.23;5.68;;;25.50;95.20;;;;;;5045980;28;20040;-71
2022/05/27 08:14:45;;;;;;;11.27;5.28;;;25.80;95.40;;;;;;5035901;28;20033;-72
2022/05/27 08:17:11;;;;;;;9.15;4.95;;;25.30;95.20;;;;;;5045774;28;20041;-71
2022/05/27 08:19:37;;;;;;;9.02;5.53;;;24.80;95.40;;;;;;5045601;28;20040;-72
2022/05/27 08:22:04;;;;;;;9.10;6.10;;;25.30;95.10;;;;;;5040576;28;20040;-72
2022/05/27 08:24:30;;;;;;;9.18;5.45;;;25.20;95.30;;;;;;5038940;28;20037;-72
2022/05/27 08:26:56;;;;;;;11.75;6.65;;;24.90;95.70;;;;;;5047228;28;20972;-72
2022/05/27 08:29:21;;;;;;;14.43;5.93;;;24.70;96.80;;;;;;5047826;28;20064;-72
2022/05/27 08:31:47;;;;;;;12.73;6.38;;;25.00;96.80;;;;;;5045050;28;20043;-71
2022/05/27 08:39:46;;;;;;;10.68;5.43;;;25.10;95.80;;;;;;5041060;28;20044;-72
2022/05/27 08:42:49;;;;;;;11.55;5.55;;;24.90;96.00;;;;;;5046239;28;20037;-72
2022/05/27 08:45:41;;;;;;;11.70;5.72;;;24.30;96.90;;;;;;5049909;28;20037;-72
2022/05/27 08:48:10;;;;;;;11.98;5.60;;;24.70;97.30;;;;;;5043693;28;20037;-72
2022/05/27 08:50:49;;;;;;;18.52;6.10;;;25.10;95.70;;;;;;5048490;28;20037;-72
2022/05/27 08:53:26;;;;;;;16.88;6.07;;;25.40;96.20;;;;;;5047841;28;20032;-73
2022/05/27 09:01:39;;;;;;;7.82;5.47;;;25.20;96.10;;;;;;5047192;28;20099;-72
2022/05/27 09:04:40;;;;;;;10.20;5.88;;;25.40;95.70;;;;;;5047571;28;20702;-72
2022/05/27 09:07:40;;;;;;;17.92;6.90;;;25.40;96.00;;;;;;5045833;28;20029;-73
2022/05/27 09:10:14;;;;;;;9.75;6.63;;;25.40;95.50;;;;;;5047466;28;20041;-73
2022/05/27 09:13:05;;;;;;;13.48;6.70;;;25.60;95.50;;;;;;5047804;28;20033;-72
2022/05/27 09:15:48;;;;;;;10.45;5.78;;;25.70;94.70;;;;;;5047207;28;20622;-72
2022/05/27 09:18:29;;;;;;;12.20;5.45;;;25.80;95.10;;;;;;5044860;28;20035;-73
2022/05/27 09:21:21;;;;;;;8.95;5.40;;;26.10;95.20;;;;;;5047713;28;20059;-72
2022/05/27 09:24:08;;;;;;;10.25;5.20;;;26.50;94.80;;;;;;5047561;28;20630;-72
2022/05/27 09:26:43;;;;;;;11.80;5.60;;;26.40;94.20;;;;;;5047518;28;20498;-72
2022/05/27 09:29:36;;;;;;;14.10;6.10;;;26.50;94.00;;;;;;5042829;28;20025;-73
2022/05/27 09:32:11;;;;;;;9.75;5.70;;;26.60;94.40;;;;;;5038461;28;20037;-72
2022/05/27 09:34:41;;;;;;;12.77;5.53;;;26.40;94.60;;;;;;5046470;28;20036;-72
2022/05/27 09:37:13;;;;;;;8.93;5.80;;;26.30;94.20;;;;;;5045731;28;20029;-72
2022/05/27 09:39:39;;;;;;;13.88;6.63;;;26.70;93.80;;;;;;5047428;28;20456;-73
2022/05/27 09:42:21;;;;;;;10.77;6.15;;;26.80;93.10;;;;;;5046915;28;20036;-73
2022/05/27 09:44:56;;;;;;;11.55;6.50;;;26.60;93.60;;;;;;5047259;28;20093;-72
2022/05/27 09:47:25;;;;;;;11.60;5.68;;;27.00;93.00;;;;;;5040817;28;20036;-72
2022/05/27 09:49:58;;;;;;;11.82;6.50;;;27.10;93.70;;;;;;5046275;28;20045;-72
2022/05/27 09:52:24;;;;;;;10.05;6.05;;;27.10;93.80;;;;;;5047704;28;20640;-73
2022/05/27 09:54:54;;;;;;;12.75;6.28;;;27.10;94.20;;;;;;5046524;28;20032;-72
2022/05/27 09:57:26;;;;;;;11.50;6.85;;;27.20;93.80;;;;;;5045428;28;20033;-72
2022/05/27 09:59:56;;;;;;;7.95;5.43;;;27.10;93.50;;;;;;5046825;28;20043;-72
2022/05/27 10:02:37;;;;;;;11.63;6.35;;;27.20;93.10;;;;;;5046967;28;20036;-73
2022/05/27 10:05:22;;;;;;;10.32;5.95;;;27.20;94.00;;;;;;5038994;28;20072;-74
2022/05/27 10:07:57;;;;;;;13.45;6.70;;;27.30;92.90;;;;;;5046152;28;20320;-74
2022/05/27 10:10:26;;;;;;;12.85;5.38;;;27.60;92.30;;;;;;5045540;28;20044;-74
2022/05/27 10:12:53;;;;;;;12.25;5.65;;;28.10;91.60;;;;;;5048411;28;20044;-74
2022/05/27 10:15:38;;;;;;;13.50;6.15;;;28.00;91.50;;;;;;5027034;28;20061;-74
2022/05/27 10:18:18;;;;;;;15.77;6.30;;;28.20;91.40;;;;;;5046503;28;20360;-74
2022/05/27 10:20:52;;;;;;;10.65;5.50;;;28.10;90.80;;;;;;5047123;28;20029;-74
2022/05/27 10:23:24;;;;;;;9.18;5.15;;;28.30;91.60;;;;;;5045500;28;20096;-74
2022/05/27 10:25:50;;;;;;;10.73;5.97;;;28.10;91.50;;;;;;5038866;28;20365;-74
2022/05/27 10:28:31;;;;;;;13.18;5.88;;;28.10;91.50;;;;;;5046525;28;20067;-75
2022/05/27 10:31:04;;;;;;;8.45;5.85;;;27.80;91.90;;;;;;5046044;28;20037;-74
2022/05/27 10:33:56;;;;;;;13.85;5.88;;;27.60;92.40;;;;;;5047220;28;20048;-74
2022/05/27 10:36:53;;;;;;;11.32;6.10;;;27.70;91.80;;;;;;5041140;28;20048;-74
2022/05/27 10:39:31;;;;;;;9.25;5.80;;;27.50;92.80;;;;;;5041872;28;20104;-74
2022/05/27 10:42:05;;;;;;;9.68;5.47;;;27.80;92.80;;;;;;5046562;28;20032;-74
2022/05/27 10:44:51;;;;;;;10.85;7.25;;;27.90;93.40;;;;;;5046501;28;20071;-74
2022/05/27 10:47:47;;;;;;;13.13;6.30;;;28.10;93.30;;;;;;5035874;28;20037;-74
2022/05/27 10:50:32;;;;;;;10.07;6.10;;;27.70;92.40;;;;;;5047397;28;20456;-74
2022/05/27 10:53:42;;;;;;;17.05;6.47;;;27.60;92.60;;;;;;5044089;28;20063;-74
2022/05/27 10:56:22;;;;;;;9.35;5.85;;;27.40;92.80;;;;;;5042327;28;20201;-74
2022/05/27 11:02:28;;;;;;;9.98;6.07;;;27.60;92.60;;;;;;5050561;28;20564;-74
2022/05/27 11:05:24;;;;;;;11.35;6.40;;;28.00;92.40;;;;;;5049648;28;20048;-74
2022/05/27 11:08:07;;;;;;;17.25;6.53;;;27.80;92.90;;;;;;5048486;28;20044;-75
2022/05/27 11:10:48;;;;;;;10.05;5.82;;;28.00;92.70;;;;;;5050428;28;20037;-74
2022/05/27 11:16:26;;;;;;;10.13;6.28;;;29.10;92.70;;;;;;5049345;28;20143;-74
2022/05/27 11:19:08;;;;;;;10.90;6.47;;;29.50;92.20;;;;;;5049460;28;20033;-74
2022/05/27 11:22:10;;;;;;;14.70;7.45;;;29.90;92.00;;;;;;5048954;28;20037;-74
2022/05/27 11:25:11;;;;;;;10.73;7.13;;;29.70;91.50;;;;;;5049671;28;20064;-74
2022/05/27 11:27:50;;;;;;;11.40;6.80;;;29.00;92.20;;;;;;4975891;28;20035;-74
2022/05/27 11:30:31;;;;;;;15.40;7.00;;;28.40;92.00;;;;;;5036352;28;20045;-74
2022/05/27 11:33:03;;;;;;;13.68;6.30;;;28.70;92.40;;;;;;5049683;28;20043;-74
2022/05/27 11:35:31;;;;;;;14.32;7.03;;;29.10;92.50;;;;;;5047604;28;20029;-74
2022/05/27 11:38:23;;;;;;;9.82;6.03;;;29.10;92.30;;;;;;5049251;28;20454;-74
2022/05/27 11:40:57;;;;;;;12.55;6.63;;;29.00;92.40;;;;;;5049895;28;20021;-74
2022/05/27 11:43:38;;;;;;;11.27;7.20;;;29.10;92.20;;;;;;5046814;28;20040;-74
2022/05/27 11:46:26;;;;;;;12.18;7.75;;;29.10;92.60;;;;;;5032635;28;20379;-74
2022/05/27 11:49:04;;;;;;;10.50;6.97;;;29.00;93.30;;;;;;5028971;28;20052;-74
2022/05/27 11:51:35;;;;;;;12.82;6.95;;;28.80;92.80;;;;;;5048947;28;20052;-74
2022/05/27 11:54:11;;;;;;;12.98;7.00;;;28.90;92.20;;;;;;5047249;28;20049;-74
2022/05/27 11:56:55;;;;;;;10.45;6.68;;;28.70;92.40;;;;;;5048899;28;20043;-74
2022/05/27 11:59:33;;;;;;;11.98;6.57;;;29.10;93.40;;;;;;5049467;28;20025;-74
2022/05/27 12:02:27;;;;;;;13.95;7.57;;;29.20;92.60;;;;;;5049248;28;20036;-74
2022/05/27 12:04:58;;;;;;;13.23;6.95;;;29.20;92.50;;;;;;5042922;28;20055;-74
2022/05/27 12:07:38;;;;;;;13.32;7.57;;;29.10;92.80;;;;;;5048703;28;20033;-74
2022/05/27 12:10:21;;;;;;;11.00;7.03;;;29.00;92.60;;;;;;5048230;28;20041;-74
2022/05/27 12:13:06;;;;;;;15.38;7.53;;;29.10;92.10;;;;;;5047368;28;20033;-74
2022/05/27 12:15:39;;;;;;;13.18;6.75;;;29.20;92.20;;;;;;5046678;28;20059;-73
2022/05/27 12:18:13;;;;;;;11.98;6.47;;;29.40;92.80;;;;;;5048701;28;20049;-74
2022/05/27 12:20:38;;;;;;;14.48;7.30;;;29.20;91.50;;;;;;5041344;28;20048;-72
2022/05/27 12:23:07;;;;;;;14.88;7.25;;;29.20;91.60;;;;;;5047274;28;20041;-73
2022/05/27 12:25:42;;;;;;;13.25;6.90;;;29.20;92.00;;;;;;5046500;28;20029;-74
2022/05/27 12:28:08;;;;;;;12.02;6.40;;;29.30;92.00;;;;;;5042092;28;20087;-73
2022/05/27 12:30:41;;;;;;;10.93;5.68;;;29.40;91.20;;;;;;5045918;28;20044;-74
2022/05/27 12:33:14;;;;;;;11.93;5.75;;;29.40;90.70;;;;;;5045232;28;20064;-74
2022/05/27 12:35:40;;;;;;;10.60;5.97;;;29.30;90.70;;;;;;5039109;28;20106;-74
2022/05/27 12:38:21;;;;;;;11.38;5.82;;;29.40;91.00;;;;;;5038504;28;20491;-74
2022/05/27 12:40:50;;;;;;;15.75;7.20;;;29.50;90.90;;;;;;5045603;28;20056;-74
2022/05/27 12:43:22;;;;;;;14.65;7.82;;;29.40;91.50;;;;;;5042695;28;20032;-74
2022/05/27 12:46:18;;;;;;;10.98;7.30;;;29.40;91.70;;;;;;5038615;28;20175;-74
2022/05/27 12:48:45;;;;;;;14.30;6.75;;;29.60;91.70;;;;;;5027444;28;20041;-74
2022/05/27 12:51:20;;;;;;;15.43;7.20;;;29.60;91.30;;;;;;5044415;28;20380;-74
2022/05/27 12:53:47;;;;;;;11.25;6.25;;;29.90;91.00;;;;;;5043589;28;20036;-74
2022/05/27 13:02:14;;;;;;;18.70;7.15;;;29.70;91.10;;;;;;5036186;28;20052;-74
2022/05/27 13:04:46;;;;;;;12.13;6.45;;;29.80;90.80;;;;;;5043657;28;20055;-74
2022/05/27 13:07:13;;;;;;;13.70;6.72;;;29.70;90.50;;;;;;5044707;28;20491;-74
2022/05/27 13:09:46;;;;;;;10.40;6.57;;;29.70;90.50;;;;;;5054116;28;20550;-73
2022/05/27 13:12:47;;;;;;;12.50;7.05;;;29.70;90.50;;;;;;5054944;28;20037;-74
2022/05/27 13:15:31;;;;;;;12.63;6.00;;;30.00;90.30;;;;;;5026254;28;20036;-74
2022/05/27 13:18:30;;;;;;;13.07;6.53;;;30.30;90.80;;;;;;5044268;28;20029;-74
2022/05/27 13:21:12;;;;;;;13.77;5.85;;;30.20;89.50;;;;;;5044532;28;20037;-74
2022/05/27 13:24:04;;;;;;;13.15;6.47;;;30.00;89.70;;;;;;5042646;28;20091;-74
2022/05/27 13:26:44;;;;;;;18.73;6.78;;;29.90;89.90;;;;;;5043476;28;20037;-74
2022/05/27 13:29:24;;;;;;;16.88;7.30;;;30.00;90.30;;;;;;5041203;28;20503;-74
2022/05/27 13:31:55;;;;;;;13.35;7.68;;;30.20;90.50;;;;;;5037606;28;20391;-76
2022/05/27 13:34:31;;;;;;;15.02;6.20;;;30.50;90.30;;;;;;5042849;28;20112;-76
2022/05/27 13:37:00;;;;;;;15.38;5.78;;;30.40;90.40;;;;;;5047695;28;20075;-76
2022/05/27 13:39:34;;;;;;;12.73;6.43;;;30.30;89.90;;;;;;5047284;28;20609;-76
2022/05/27 13:42:01;;;;;;;12.45;6.10;;;29.70;89.90;;;;;;5034891;28;20491;-77
2022/05/27 13:44:27;;;;;;;15.10;6.32;;;30.00;89.40;;;;;;5035770;28;20083;-76